Time;durP1;ratioP1;P1;durP2;ratioP2;P2;SDS_P1;SDS_P2;PMS_P1;PMS_P2;Temp;Humidity;BMP_temperature;BMP_pressure;BME280_temperature;BME280_humidity;BME280_pressure;Samples;Min_cycle;Max_cycle;Signal;HPM_P1;HPM_P2
2022/04/03 00:00:14;;;;;;;;;;;-0.10;99.90;;;;;;4927812;29;20338;-71
2022/04/03 00:02:40;;;;;;;;;;;-0.10;99.90;;;;;;4929790;29;19923;-71
2022/04/03 00:05:12;;;;;;;;;;;-0.10;99.90;;;;;;4941179;29;19974;-71
2022/04/03 00:07:44;;;;;;;;;;;-0.10;99.90;;;;;;4936108;29;19969;-71
2022/04/03 00:10:15;;;;;;;;;;;-0.10;99.90;;;;;;4927005;29;20378;-71
2022/04/03 00:12:47;;;;;;;;;;;-0.10;99.90;;;;;;4940327;29;19929;-71
2022/04/03 00:15:14;;;;;;;;;;;-0.10;99.90;;;;;;4935767;29;20035;-72
2022/04/03 00:17:43;;;;;;;;;;;-0.20;99.90;;;;;;4935721;29;19922;-71
2022/04/03 00:20:14;;;;;;;;;;;-0.10;99.90;;;;;;4924331;29;19929;-71
2022/04/03 00:22:48;;;;;;;;;;;-0.20;99.90;;;;;;4956951;28;20300;-71
2022/04/03 00:25:20;;;;;;;;;;;-0.10;99.90;;;;;;4924242;29;20294;-71
2022/04/03 00:27:51;;;;;;;;;;;-0.20;99.90;;;;;;4917998;29;19923;-71
2022/04/03 00:30:18;;;;;;;;;;;-0.20;99.90;;;;;;4914878;29;20373;-71
2022/04/03 00:32:50;;;;;;;;;;;-0.20;99.90;;;;;;4923773;29;19927;-71
2022/04/03 00:35:17;;;;;;;;;;;-0.20;99.90;;;;;;4937059;29;19927;-71
2022/04/03 00:37:43;;;;;;;;;;;-0.20;99.90;;;;;;4916620;29;20354;-72
2022/04/03 00:40:16;;;;;;;;;;;-0.20;99.90;;;;;;4916253;29;19923;-71
2022/04/03 00:42:47;;;;;;;;;;;-0.20;99.90;;;;;;4939469;29;20016;-71
2022/04/03 00:45:14;;;;;;;;;;;-0.20;99.90;;;;;;4935043;29;19945;-71
2022/04/03 00:47:42;;;;;;;;;;;-0.20;99.90;;;;;;4936526;29;19923;-71
2022/04/03 00:50:08;;;;;;;;;;;-0.20;99.90;;;;;;4934193;29;20409;-71
2022/04/03 00:52:35;;;;;;;;;;;-0.20;99.90;;;;;;4936319;29;20447;-72
2022/04/03 00:55:02;;;;;;;;;;;-0.20;99.90;;;;;;4940537;29;19929;-71
2022/04/03 00:57:34;;;;;;;;;;;-0.20;99.90;;;;;;4935114;29;19978;-71
2022/04/03 01:00:06;;;;;;;;;;;-0.20;99.90;;;;;;4915786;29;19923;-71
2022/04/03 01:02:39;;;;;;;;;;;-0.20;99.90;;;;;;4936341;29;19922;-71
2022/04/03 01:05:10;;;;;;;;;;;-0.20;99.90;;;;;;4935344;29;19978;-71
2022/04/03 01:07:37;;;;;;;;;;;-0.20;99.90;;;;;;4934202;29;19927;-71
2022/04/03 01:10:09;;;;;;;;;;;-0.20;99.90;;;;;;4931017;29;20355;-71
2022/04/03 01:12:41;;;;;;;;;;;-0.20;99.90;;;;;;4935430;29;20005;-71
2022/04/03 01:15:14;;;;;;;;;;;-0.10;99.90;;;;;;4928036;29;19922;-71
2022/04/03 01:17:41;;;;;;;;;;;-0.20;99.90;;;;;;4934480;29;19922;-71
2022/04/03 01:20:13;;;;;;;;;;;-0.10;99.90;;;;;;4930049;29;19978;-71
2022/04/03 01:22:40;;;;;;;;;;;-0.10;99.90;;;;;;4917383;29;20427;-71
2022/04/03 01:25:11;;;;;;;;;;;-0.10;99.90;;;;;;4938285;29;19929;-71
2022/04/03 01:27:39;;;;;;;;;;;-0.10;99.90;;;;;;4918052;29;20346;-71
2022/04/03 01:30:11;;;;;;;;;;;0.00;99.90;;;;;;4929675;29;20272;-71
2022/04/03 01:32:38;;;;;;;;;;;0.00;99.90;;;;;;4932563;29;19927;-71
2022/04/03 01:35:05;;;;;;;;;;;0.00;99.90;;;;;;4939390;29;19923;-71
2022/04/03 01:37:32;;;;;;;;;;;0.00;99.90;;;;;;4933510;29;19923;-71
2022/04/03 01:40:04;;;;;;;;;;;0.00;99.90;;;;;;4923732;29;19927;-71
2022/04/03 01:42:37;;;;;;;;;;;0.00;99.90;;;;;;4934891;29;19961;-71
2022/04/03 01:45:05;;;;;;;;;;;0.00;99.90;;;;;;4917430;29;19922;-71
2022/04/03 01:47:37;;;;;;;;;;;0.00;99.90;;;;;;4933665;29;19927;-71
2022/04/03 01:50:09;;;;;;;;;;;0.00;99.90;;;;;;4929686;29;19978;-71
2022/04/03 01:52:35;;;;;;;;;;;0.00;99.90;;;;;;4932950;29;19977;-71
2022/04/03 01:55:07;;;;;;;;;;;0.00;99.90;;;;;;4939887;29;19933;-71
2022/04/03 01:57:34;;;;;;;;;;;0.00;99.90;;;;;;4933284;29;20317;-71
2022/04/03 02:00:01;;;;;;;;;;;0.00;99.90;;;;;;4923776;29;19923;-71
2022/04/03 02:02:30;;;;;;;;;;;0.00;99.90;;;;;;4933646;29;19929;-71
2022/04/03 02:05:01;;;;;;;;;;;0.00;99.90;;;;;;4941845;29;20477;-71
2022/04/03 02:07:33;;;;;;;;;;;-0.10;99.90;;;;;;4914130;29;19923;-71
2022/04/03 02:10:00;;;;;;;;;;;0.00;99.90;;;;;;4929747;29;20033;-71
2022/04/03 02:12:27;;;;;;;;;;;0.00;99.90;;;;;;4924067;29;19922;-71
2022/04/03 02:14:59;;;;;;;;;;;0.00;99.90;;;;;;4941770;29;19923;-71
2022/04/03 02:17:31;;;;;;;;;;;0.00;99.90;;;;;;4934282;29;19922;-71
2022/04/03 02:20:04;;;;;;;;;;;0.00;99.90;;;;;;4914349;29;20420;-71
2022/04/03 02:22:36;;;;;;;;;;;0.00;99.90;;;;;;4931682;29;19945;-71
2022/04/03 02:25:11;;;;;;;;;;;0.00;99.90;;;;;;4937206;29;19926;-71
2022/04/03 02:27:44;;;;;;;;;;;-0.10;99.90;;;;;;4916849;29;19927;-71
2022/04/03 02:30:16;;;;;;;;;;;-0.10;99.90;;;;;;4928727;29;19934;-71
2022/04/03 02:32:43;;;;;;;;;;;-0.10;99.90;;;;;;4915581;29;19927;-71
2022/04/03 02:35:16;;;;;;;;;;;-0.10;99.90;;;;;;4938656;29;19978;-71
2022/04/03 02:37:47;;;;;;;;;;;-0.10;99.90;;;;;;4917555;29;19929;-71
2022/04/03 02:40:15;;;;;;;;;;;-0.10;99.90;;;;;;4922573;29;19978;-71
2022/04/03 02:42:46;;;;;;;;;;;-0.10;99.90;;;;;;4929673;29;19927;-71
2022/04/03 02:45:18;;;;;;;;;;;-0.10;99.90;;;;;;4928676;29;19933;-71
2022/04/03 02:47:52;;;;;;;;;;;-0.10;99.90;;;;;;4898478;29;19923;-71
2022/04/03 02:50:25;;;;;;;;;;;-0.10;99.90;;;;;;4929735;29;19930;-71
2022/04/03 02:52:52;;;;;;;;;;;-0.10;99.90;;;;;;4932742;29;20369;-71
2022/04/03 02:55:20;;;;;;;;;;;-0.10;99.90;;;;;;4918059;29;19931;-71
2022/04/03 02:57:55;;;;;;;;;;;-0.10;99.90;;;;;;4913607;29;20417;-71
2022/04/03 03:00:26;;;;;;;;;;;-0.10;99.90;;;;;;4914387;29;19923;-71
2022/04/03 03:02:53;;;;;;;;;;;0.00;99.90;;;;;;4940564;29;19926;-71
2022/04/03 03:05:25;;;;;;;;;;;0.00;99.90;;;;;;4941005;29;19930;-71
2022/04/03 03:07:51;;;;;;;;;;;-0.10;99.90;;;;;;4913343;29;20400;-71
2022/04/03 03:10:19;;;;;;;;;;;-0.10;99.90;;;;;;4913885;29;20029;-71
2022/04/03 03:12:46;;;;;;;;;;;-0.10;99.90;;;;;;4931260;29;19929;-71
2022/04/03 03:15:19;;;;;;;;;;;-0.10;99.90;;;;;;4924717;29;19938;-71
2022/04/03 03:17:46;;;;;;;;;;;-0.10;99.90;;;;;;4931963;29;19962;-71
2022/04/03 03:20:18;;;;;;;;;;;-0.10;99.90;;;;;;4928689;29;19933;-71
2022/04/03 03:22:45;;;;;;;;;;;-0.10;99.90;;;;;;4932243;29;19923;-71
2022/04/03 03:25:12;;;;;;;;;;;-0.10;99.90;;;;;;4929275;29;19923;-71
2022/04/03 03:27:46;;;;;;;;;;;-0.10;99.90;;;;;;4913874;29;20305;-71
2022/04/03 03:30:18;;;;;;;;;;;0.00;99.90;;;;;;4914787;29;19927;-71
2022/04/03 03:32:45;;;;;;;;;;;0.00;99.90;;;;;;4929884;29;19922;-71
2022/04/03 03:35:16;;;;;;;;;;;-0.10;99.90;;;;;;4919159;29;19930;-71
2022/04/03 03:37:48;;;;;;;;;;;-0.10;99.90;;;;;;4929707;29;20017;-71
2022/04/03 03:40:15;;;;;;;;;;;-0.10;99.90;;;;;;4924440;29;19923;-71
2022/04/03 03:42:42;;;;;;;;;;;0.00;99.90;;;;;;4936118;29;20017;-71
2022/04/03 03:45:10;;;;;;;;;;;0.00;99.90;;;;;;4928336;29;19986;-71
2022/04/03 03:47:36;;;;;;;;;;;0.00;99.90;;;;;;4936413;29;19922;-71
2022/04/03 03:50:03;;;;;;;;;;;0.00;99.90;;;;;;4932935;29;20042;-71
2022/04/03 03:52:35;;;;;;;;;;;0.00;99.90;;;;;;4939007;29;20369;-71
2022/04/03 03:55:02;;;;;;;;;;;0.00;99.90;;;;;;4945105;29;20029;-71
2022/04/03 03:57:29;;;;;;;;;;;0.00;99.90;;;;;;4937463;29;20305;-71
2022/04/03 04:00:01;;;;;;;;;;;0.00;99.90;;;;;;4917873;29;19923;-71
2022/04/03 04:02:37;;;;;;;;;;;0.00;99.90;;;;;;4938813;29;19922;-71
2022/04/03 04:05:09;;;;;;;;;;;0.00;99.90;;;;;;4945128;29;19923;-71
2022/04/03 04:07:42;;;;;;;;;;;-0.10;99.90;;;;;;4936210;29;19929;-71
2022/04/03 04:10:11;;;;;;;;;;;-0.10;99.90;;;;;;4932535;29;19923;-71
2022/04/03 04:12:39;;;;;;;;;;;-0.10;99.90;;;;;;4930527;29;19929;-71
2022/04/03 04:15:12;;;;;;;;;;;-0.10;99.90;;;;;;4948675;29;19939;-71
2022/04/03 04:17:42;;;;;;;;;;;-0.10;99.90;;;;;;4935907;29;19938;-71
2022/04/03 04:20:15;;;;;;;;;;;0.00;99.90;;;;;;4931910;29;19927;-71
2022/04/03 04:22:48;;;;;;;;;;;-0.10;99.90;;;;;;4928253;29;19923;-71
2022/04/03 04:25:20;;;;;;;;;;;-0.10;99.90;;;;;;4927527;29;19927;-71
2022/04/03 04:27:52;;;;;;;;;;;-0.10;99.90;;;;;;4924509;29;19923;-71
2022/04/03 04:30:18;;;;;;;;;;;0.00;99.90;;;;;;4936596;29;20472;-71
2022/04/03 04:32:50;;;;;;;;;;;0.00;99.90;;;;;;4937742;29;20597;-70
2022/04/03 04:35:16;;;;;;;;;;;0.00;99.90;;;;;;4928085;29;20461;-71
2022/04/03 04:37:50;;;;;;;;;;;0.10;99.90;;;;;;4900918;29;19933;-71
2022/04/03 04:40:22;;;;;;;;;;;0.00;99.90;;;;;;4900391;29;20317;-71
2022/04/03 04:42:55;;;;;;;;;;;0.00;99.90;;;;;;4930027;29;20468;-71
2022/04/03 04:45:27;;;;;;;;;;;0.00;99.90;;;;;;4931204;29;20726;-71
2022/04/03 04:48:02;;;;;;;;;;;0.00;99.90;;;;;;4915544;29;20338;-71
2022/04/03 04:50:33;;;;;;;;;;;0.00;99.90;;;;;;4918453;29;20112;-71
2022/04/03 04:53:05;;;;;;;;;;;0.00;99.90;;;;;;4934208;29;19923;-70
2022/04/03 04:55:32;;;;;;;;;;;0.00;99.90;;;;;;4915055;29;19923;-71
2022/04/03 04:58:03;;;;;;;;;;;0.00;99.90;;;;;;4915645;29;20326;-71
2022/04/03 05:00:35;;;;;;;;;;;0.00;99.90;;;;;;4918580;29;19933;-71
2022/04/03 05:03:07;;;;;;;;;;;0.00;99.90;;;;;;4933829;29;19949;-71
2022/04/03 05:05:40;;;;;;;;;;;0.00;99.90;;;;;;4915921;29;20441;-71
2022/04/03 05:08:07;;;;;;;;;;;0.00;99.90;;;;;;4933688;29;19923;-71
2022/04/03 05:10:33;;;;;;;;;;;0.00;99.90;;;;;;4935240;28;19923;-70
2022/04/03 05:13:01;;;;;;;;;;;0.00;99.90;;;;;;4926795;29;19922;-71
2022/04/03 05:15:29;;;;;;;;;;;0.00;99.90;;;;;;4937169;29;19927;-70
2022/04/03 05:18:00;;;;;;;;;;;0.00;99.90;;;;;;4930491;29;19955;-71
2022/04/03 05:20:27;;;;;;;;;;;0.00;99.90;;;;;;4920722;29;20417;-71
2022/04/03 05:22:59;;;;;;;;;;;0.00;99.90;;;;;;4933785;29;19970;-71
2022/04/03 05:25:26;;;;;;;;;;;0.00;99.90;;;;;;4930624;29;20021;-70
2022/04/03 05:27:58;;;;;;;;;;;-0.10;99.90;;;;;;4916198;29;20369;-71
2022/04/03 05:30:25;;;;;;;;;;;-0.10;99.90;;;;;;4912315;29;19930;-70
2022/04/03 05:32:51;;;;;;;;;;;-0.10;99.90;;;;;;4927068;29;20018;-71
2022/04/03 05:35:23;;;;;;;;;;;-0.10;99.90;;;;;;4947569;29;20271;-71
2022/04/03 05:37:50;;;;;;;;;;;-0.10;99.90;;;;;;4934233;29;19929;-71
2022/04/03 05:40:19;;;;;;;;;;;-0.20;99.90;;;;;;4930675;29;19923;-70
2022/04/03 05:42:50;;;;;;;;;;;-0.20;99.90;;;;;;4929850;29;19970;-70
2022/04/03 05:45:18;;;;;;;;;;;-0.20;99.90;;;;;;4933974;29;19923;-71
2022/04/03 05:47:49;;;;;;;;;;;-0.10;99.90;;;;;;4935526;29;19923;-70
2022/04/03 05:50:21;;;;;;;;;;;-0.10;99.90;;;;;;4915911;29;19929;-70
2022/04/03 05:52:49;;;;;;;;;;;-0.10;99.90;;;;;;4925224;29;19923;-71
2022/04/03 05:55:17;;;;;;;;;;;-0.10;99.90;;;;;;4927291;29;20025;-71
2022/04/03 05:57:49;;;;;;;;;;;-0.10;99.90;;;;;;4932459;29;19922;-71
2022/04/03 06:00:22;;;;;;;;;;;-0.10;99.90;;;;;;4935166;29;20030;-70
2022/04/03 06:02:55;;;;;;;;;;;-0.10;99.90;;;;;;4932724;29;20008;-71
2022/04/03 06:05:24;;;;;;;;;;;-0.10;99.90;;;;;;4915866;29;19959;-71
2022/04/03 06:07:56;;;;;;;;;;;-0.10;99.90;;;;;;4914870;29;19977;-71
2022/04/03 06:10:28;;;;;;;;;;;0.00;99.90;;;;;;4916301;29;19927;-71
2022/04/03 06:12:56;;;;;;;;;;;0.00;99.90;;;;;;4912739;29;19970;-70
2022/04/03 06:15:24;;;;;;;;;;;0.00;99.90;;;;;;4938261;29;20452;-70
2022/04/03 06:17:56;;;;;;;;;;;0.10;99.90;;;;;;4934785;29;20021;-70
2022/04/03 06:20:23;;;;;;;;;;;0.10;99.90;;;;;;4930305;29;19923;-70
2022/04/03 06:22:55;;;;;;;;;;;0.20;99.90;;;;;;4933034;29;19933;-71
2022/04/03 06:25:27;;;;;;;;;;;0.20;99.90;;;;;;4928486;29;19922;-71
2022/04/03 06:27:58;;;;;;;;;;;0.20;99.90;;;;;;4933702;29;19929;-71
2022/04/03 06:30:30;;;;;;;;;;;0.20;99.90;;;;;;4915983;29;19933;-71
2022/04/03 06:32:57;;;;;;;;;;;0.10;99.90;;;;;;4918052;29;19923;-70
2022/04/03 06:35:28;;;;;;;;;;;0.10;99.90;;;;;;4940614;29;19937;-72
2022/04/03 06:38:00;;;;;;;;;;;0.10;99.90;;;;;;4925787;29;19927;-71
2022/04/03 06:40:33;;;;;;;;;;;0.10;99.90;;;;;;4932303;28;20397;-71
2022/04/03 06:43:04;;;;;;;;;;;0.20;99.90;;;;;;4933759;29;19962;-71
2022/04/03 06:45:36;;;;;;;;;;;0.20;99.90;;;;;;4920645;29;19923;-71
2022/04/03 06:48:07;;;;;;;;;;;0.30;99.90;;;;;;4933025;29;20390;-71
2022/04/03 06:50:39;;;;;;;;;;;0.30;99.90;;;;;;4928918;29;19937;-71
2022/04/03 06:53:11;;;;;;;;;;;0.30;99.90;;;;;;4914863;29;20013;-71
2022/04/03 06:55:37;;;;;;;;;;;0.40;99.90;;;;;;4933575;29;20014;-71
2022/04/03 06:58:04;;;;;;;;;;;0.40;99.90;;;;;;4912994;29;19923;-70
2022/04/03 07:00:31;;;;;;;;;;;0.40;99.90;;;;;;4913981;29;20030;-71
2022/04/03 07:03:02;;;;;;;;;;;0.30;99.90;;;;;;4940598;29;19993;-71
2022/04/03 07:05:34;;;;;;;;;;;0.30;99.90;;;;;;4942944;29;19926;-71
2022/04/03 07:08:01;;;;;;;;;;;0.40;99.90;;;;;;4933072;29;19926;-71
2022/04/03 07:10:28;;;;;;;;;;;0.50;99.90;;;;;;4931703;29;19958;-70
2022/04/03 07:12:55;;;;;;;;;;;0.40;99.90;;;;;;4928187;29;19927;-71
2022/04/03 07:15:27;;;;;;;;;;;0.40;99.90;;;;;;4947174;28;20792;-71
2022/04/03 07:17:53;;;;;;;;;;;0.40;99.90;;;;;;4929290;29;19923;-71
2022/04/03 07:20:25;;;;;;;;;;;0.40;99.90;;;;;;4938317;29;19922;-71
2022/04/03 07:22:52;;;;;;;;;;;0.40;99.90;;;;;;4934823;29;20435;-71
2022/04/03 07:25:18;;;;;;;;;;;0.50;99.90;;;;;;4944138;29;20342;-71
2022/04/03 07:27:45;;;;;;;;;;;0.50;99.90;;;;;;4933810;29;20023;-71
2022/04/03 07:30:16;;;;;;;;;;;0.50;99.90;;;;;;4934395;29;20302;-71
2022/04/03 07:32:48;;;;;;;;;;;0.50;99.90;;;;;;4938410;29;19929;-71
2022/04/03 07:35:20;;;;;;;;;;;0.50;99.90;;;;;;4929708;29;20022;-71
2022/04/03 07:37:51;;;;;;;;;;;0.50;99.90;;;;;;4952768;28;19929;-71
2022/04/03 07:40:23;;;;;;;;;;;0.50;99.90;;;;;;4932408;28;19930;-72
2022/04/03 07:42:51;;;;;;;;;;;0.60;99.90;;;;;;4924337;29;19941;-71
2022/04/03 07:45:18;;;;;;;;;;;0.70;99.90;;;;;;4931467;29;19923;-71
2022/04/03 07:47:48;;;;;;;;;;;0.80;99.90;;;;;;4934579;29;19929;-71
2022/04/03 07:50:16;;;;;;;;;;;0.90;99.90;;;;;;4926641;29;20017;-71
2022/04/03 07:52:43;;;;;;;;;;;0.90;99.90;;;;;;4926130;29;20018;-71
2022/04/03 07:55:15;;;;;;;;;;;1.00;99.90;;;;;;4938889;29;19923;-71
2022/04/03 07:57:46;;;;;;;;;;;1.00;99.90;;;;;;4952687;29;19929;-72
2022/04/03 08:00:13;;;;;;;;;;;1.10;99.90;;;;;;4937448;29;20382;-71
2022/04/03 08:02:46;;;;;;;;;;;1.10;99.90;;;;;;4938200;29;19928;-72
2022/04/03 08:05:13;;;;;;;;;;;1.10;99.90;;;;;;4933854;29;19969;-72
2022/04/03 08:07:43;;;;;;;;;;;1.10;99.90;;;;;;4920093;29;19933;-72
2022/04/03 08:10:16;;;;;;;;;;;1.10;99.90;;;;;;4936905;29;20020;-72
2022/04/03 08:12:49;;;;;;;;;;;1.00;99.90;;;;;;4931110;29;19965;-72
2022/04/03 08:15:20;;;;;;;;;;;1.00;99.90;;;;;;4936657;29;20449;-72
2022/04/03 08:17:52;;;;;;;;;;;1.00;99.90;;;;;;4935794;29;19922;-73
2022/04/03 08:20:19;;;;;;;;;;;1.10;99.90;;;;;;4915922;29;20026;-72
2022/04/03 08:22:47;;;;;;;;;;;1.20;99.90;;;;;;4918096;29;19971;-73
2022/04/03 08:25:19;;;;;;;;;;;1.20;99.90;;;;;;4947417;28;20397;-72
2022/04/03 08:27:47;;;;;;;;;;;1.30;99.90;;;;;;4955868;29;20009;-73
2022/04/03 08:30:20;;;;;;;;;;;1.40;99.90;;;;;;4939159;28;19929;-73
2022/04/03 08:32:47;;;;;;;;;;;1.40;99.90;;;;;;4939809;29;20409;-73
2022/04/03 08:35:14;;;;;;;;;;;1.50;99.90;;;;;;4924108;29;19923;-73
2022/04/03 08:37:46;;;;;;;;;;;1.50;99.90;;;;;;4916463;29;20417;-73
2022/04/03 08:40:13;;;;;;;;;;;1.40;99.90;;;;;;4916075;29;19923;-73
2022/04/03 08:42:47;;;;;;;;;;;1.40;99.90;;;;;;4942274;29;20381;-73
2022/04/03 08:45:20;;;;;;;;;;;1.40;99.90;;;;;;4927163;29;19954;-73
2022/04/03 08:47:52;;;;;;;;;;;1.30;99.90;;;;;;4918456;29;19937;-73
2022/04/03 08:50:23;;;;;;;;;;;1.30;99.90;;;;;;4941183;29;20267;-73
2022/04/03 08:52:57;;;;;;;;;;;1.20;99.90;;;;;;4929591;29;19933;-73
2022/04/03 08:55:23;;;;;;;;;;;1.20;99.90;;;;;;4930823;29;20009;-73
2022/04/03 08:57:50;;;;;;;;;;;1.10;99.90;;;;;;4937615;29;20029;-73
2022/04/03 09:00:22;;;;;;;;;;;1.10;99.90;;;;;;4939170;28;19953;-73
2022/04/03 09:02:50;;;;;;;;;;;1.10;99.90;;;;;;4925564;29;20290;-73
2022/04/03 09:05:17;;;;;;;;;;;1.10;99.90;;;;;;4952725;29;19922;-73
2022/04/03 09:07:44;;;;;;;;;;;1.20;99.90;;;;;;4945254;28;19946;-73
2022/04/03 09:10:17;;;;;;;;;;;1.20;99.90;;;;;;4942481;29;19926;-72
2022/04/03 09:12:45;;;;;;;;;;;1.20;99.90;;;;;;4939250;28;19962;-73
2022/04/03 09:15:17;;;;;;;;;;;1.20;99.90;;;;;;4944576;29;20431;-73
2022/04/03 09:17:53;;;;;;;;;;;1.30;99.90;;;;;;4943167;29;19923;-73
2022/04/03 09:20:26;;;;;;;;;;;1.30;99.90;;;;;;4929819;29;19922;-73
2022/04/03 09:22:59;;;;;;;;;;;1.40;99.90;;;;;;4939257;28;20355;-73
2022/04/03 09:25:35;;;;;;;;;;;1.50;99.90;;;;;;4941072;29;19933;-73
2022/04/03 09:28:08;;;;;;;;;;;1.50;99.90;;;;;;4935203;29;20065;-74
2022/04/03 09:30:44;;;;;;;;;;;1.50;99.90;;;;;;4938582;28;19927;-75
2022/04/03 09:33:20;;;;;;;;;;;1.50;99.90;;;;;;4932508;29;19973;-73
2022/04/03 09:35:53;;;;;;;;;;;1.50;99.90;;;;;;4927624;29;19922;-73
2022/04/03 09:38:20;;;;;;;;;;;1.60;99.90;;;;;;4936454;29;20522;-73
2022/04/03 09:40:52;;;;;;;;;;;1.60;99.90;;;;;;4933962;28;19933;-73
2022/04/03 09:43:34;;;;;;;;;;;1.70;99.90;;;;;;4930867;29;19922;-73
2022/04/03 09:46:05;;;;;;;;;;;1.80;99.90;;;;;;4941555;29;20021;-74
2022/04/03 09:48:59;;;;;;;;;;;1.90;99.90;;;;;;4920540;29;19969;-74
2022/04/03 09:51:29;;;;;;;;;;;2.00;99.90;;;;;;4910923;29;19929;-73
2022/04/03 09:54:02;;;;;;;;;;;2.00;99.90;;;;;;4948956;28;20355;-74
2022/04/03 09:56:37;;;;;;;;;;;2.00;99.90;;;;;;4940474;29;19929;-73
2022/04/03 09:59:09;;;;;;;;;;;2.00;99.90;;;;;;4937389;29;20373;-74
2022/04/03 10:01:36;;;;;;;;;;;2.00;99.90;;;;;;4915648;29;19923;-74
2022/04/03 10:04:04;;;;;;;;;;;1.90;99.90;;;;;;4923388;29;19923;-74
2022/04/03 10:06:31;;;;;;;;;;;2.00;99.90;;;;;;4937074;28;20688;-74
2022/04/03 10:08:59;;;;;;;;;;;2.10;99.90;;;;;;4937245;29;19954;-74
2022/04/03 10:11:31;;;;;;;;;;;2.30;99.90;;;;;;4934875;28;19986;-74
2022/04/03 10:13:58;;;;;;;;;;;2.30;99.90;;;;;;4938755;29;19934;-74
2022/04/03 10:16:30;;;;;;;;;;;2.10;99.90;;;;;;4941237;28;19923;-74
2022/04/03 10:19:02;;;;;;;;;;;2.10;99.90;;;;;;4934804;29;20038;-74
2022/04/03 10:21:36;;;;;;;;;;;2.10;99.90;;;;;;4933666;28;19930;-74
2022/04/03 10:24:14;;;;;;;;;;;2.20;99.90;;;;;;4913581;29;19923;-74
2022/04/03 10:26:43;;;;;;;;;;;2.30;99.90;;;;;;4943171;29;19933;-74
2022/04/03 10:29:11;;;;;;;;;;;2.40;99.90;;;;;;4925698;29;19973;-74
2022/04/03 10:31:38;;;;;;;;;;;2.50;99.90;;;;;;4921442;29;20298;-75
2022/04/03 10:34:05;;;;;;;;;;;2.60;99.90;;;;;;4917888;29;19942;-74
2022/04/03 10:36:37;;;;;;;;;;;2.70;99.90;;;;;;4926328;29;19929;-75
2022/04/03 10:39:09;;;;;;;;;;;2.70;99.90;;;;;;4934107;29;20326;-74
2022/04/03 10:41:39;;;;;;;;;;;2.70;99.90;;;;;;4927164;28;19946;-75
2022/04/03 10:44:18;;;;;;;;;;;3.00;99.90;;;;;;4920877;29;19930;-74
2022/04/03 10:47:03;;;;;;;;;;;3.20;99.90;;;;;;4917913;29;19931;-74
2022/04/03 10:49:38;;;;;;;;;;;3.40;99.90;;;;;;4937051;28;19932;-74
2022/04/03 10:52:22;;;;;;;;;;;3.70;99.90;;;;;;4919341;29;19930;-75
2022/04/03 10:54:50;;;;;;;;;;;3.90;99.90;;;;;;4931856;29;20293;-75
2022/04/03 10:57:35;;;;;;;;;;;3.90;99.90;;;;;;4916257;29;19922;-75
2022/04/03 11:00:09;;;;;;;;;;;3.80;99.90;;;;;;4917146;29;19926;-75
2022/04/03 11:02:41;;;;;;;;;;;3.70;99.90;;;;;;4923360;29;19922;-75
2022/04/03 11:05:22;;;;;;;;;;;3.80;99.90;;;;;;4917931;29;20304;-75
2022/04/03 11:07:50;;;;;;;;;;;3.70;99.90;;;;;;4917242;29;19973;-75
2022/04/03 11:10:35;;;;;;;;;;;3.90;99.90;;;;;;4912343;29;20017;-75
2022/04/03 11:13:07;;;;;;;;;;;4.00;99.90;;;;;;4927723;29;20460;-75
2022/04/03 11:15:42;;;;;;;;;;;4.00;99.90;;;;;;4939139;29;19927;-76
2022/04/03 11:18:28;;;;;;;;;;;3.80;99.90;;;;;;4933329;29;20523;-75
2022/04/03 11:21:10;;;;;;;;;;;3.70;99.90;;;;;;4931916;29;19929;-75
2022/04/03 11:23:47;;;;;;;;;;;3.50;99.90;;;;;;4913979;29;20263;-75
2022/04/03 11:26:14;;;;;;;;;;;3.60;99.90;;;;;;4936051;29;20026;-75
2022/04/03 11:28:46;;;;;;;;;;;3.70;99.90;;;;;;4936740;29;19926;-75
2022/04/03 11:31:13;;;;;;;;;;;3.80;99.90;;;;;;4927069;29;19930;-75
2022/04/03 11:33:45;;;;;;;;;;;3.70;99.90;;;;;;4924810;29;19922;-75
2022/04/03 11:36:17;;;;;;;;;;;3.70;99.90;;;;;;4951753;29;20381;-75
2022/04/03 11:38:47;;;;;;;;;;;3.70;99.90;;;;;;4951823;29;19922;-75
2022/04/03 11:41:15;;;;;;;;;;;3.60;99.90;;;;;;4945854;28;20337;-75
2022/04/03 11:43:42;;;;;;;;;;;3.50;99.90;;;;;;4936785;29;19969;-75
2022/04/03 11:46:09;;;;;;;;;;;3.40;99.90;;;;;;4932839;29;19922;-75
2022/04/03 11:48:42;;;;;;;;;;;3.40;99.90;;;;;;4932716;29;19927;-75
2022/04/03 11:51:13;;;;;;;;;;;3.40;99.90;;;;;;4915969;29;19931;-75
2022/04/03 11:53:42;;;;;;;;;;;3.50;99.90;;;;;;4940970;29;19923;-75
2022/04/03 11:56:14;;;;;;;;;;;3.70;99.90;;;;;;4945982;29;19922;-75
2022/04/03 11:58:45;;;;;;;;;;;3.90;99.90;;;;;;4931200;28;19923;-75
2022/04/03 12:01:27;;;;;;;;;;;4.10;99.90;;;;;;4933577;28;19944;-76
2022/04/03 12:04:05;;;;;;;;;;;4.00;99.90;;;;;;4943169;29;20021;-76
2022/04/03 12:06:37;;;;;;;;;;;3.80;99.90;;;;;;4920193;29;20025;-77
2022/04/03 12:09:10;;;;;;;;;;;3.80;99.90;;;;;;4942980;28;20368;-80
2022/04/03 12:11:45;;;;;;;;;;;3.60;99.90;;;;;;4932410;29;19982;-77
2022/04/03 12:14:21;;;;;;;;;;;3.50;99.90;;;;;;4925518;29;19934;-79
2022/04/03 12:16:53;;;;;;;;;;;3.60;99.90;;;;;;4954449;29;20274;-78
2022/04/03 12:19:20;;;;;;;;;;;3.80;99.90;;;;;;4934249;29;19923;-79
2022/04/03 12:21:56;;;;;;;;;;;4.00;99.90;;;;;;4920875;29;19927;-78
2022/04/03 12:24:30;;;;;;;;;;;4.30;99.90;;;;;;4936092;29;19922;-77
2022/04/03 12:27:05;;;;;;;;;;;4.50;99.90;;;;;;4953291;28;20385;-78
2022/04/03 12:29:32;;;;;;;;;;;4.50;99.90;;;;;;4955194;29;19981;-76
2022/04/03 12:32:06;;;;;;;;;;;4.30;99.90;;;;;;4937829;28;20037;-75
2022/04/03 12:34:33;;;;;;;;;;;4.20;99.90;;;;;;4932866;29;19933;-75
2022/04/03 12:37:02;;;;;;;;;;;4.10;99.90;;;;;;4921350;29;20032;-75
2022/04/03 12:39:35;;;;;;;;;;;4.00;99.90;;;;;;4938226;28;19929;-77
2022/04/03 12:42:13;;;;;;;;;;;4.20;99.90;;;;;;4925127;29;20013;-76
2022/04/03 12:44:49;;;;;;;;;;;4.20;99.90;;;;;;4944958;29;20403;-76
2022/04/03 12:47:17;;;;;;;;;;;4.30;99.90;;;;;;4945095;28;20029;-75
2022/04/03 12:50:07;;;;;;;;;;;4.30;99.90;;;;;;4931545;29;20025;-75
2022/04/03 12:52:44;;;;;;;;;;;4.40;99.90;;;;;;4912828;29;20374;-75
2022/04/03 12:55:35;;;;;;;;;;;4.20;99.90;;;;;;4917407;29;19922;-75
2022/04/03 13:00:53;;;;;;;;;;;3.60;99.90;;;;;;4941345;28;19958;-75
2022/04/03 13:03:38;;;;;;;;;;;3.50;99.90;;;;;;4936405;28;19926;-74
2022/04/03 13:06:14;;;;;;;;;;;3.50;99.90;;;;;;4913588;29;19923;-74
2022/04/03 13:08:47;;;;;;;;;;;3.80;99.90;;;;;;4934783;29;20014;-74
2022/04/03 13:11:45;;;;;;;;;;;3.90;99.90;;;;;;4932829;29;19923;-74
2022/04/03 13:14:26;;;;;;;;;;;4.00;99.90;;;;;;4928862;29;19930;-74
2022/04/03 13:16:54;;;;;;;;;;;4.10;99.90;;;;;;4934042;29;20370;-74
2022/04/03 13:19:26;;;;;;;;;;;4.30;99.90;;;;;;4930305;29;19933;-74
2022/04/03 13:21:57;;;;;;;;;;;4.30;99.90;;;;;;4933166;29;20056;-74
2022/04/03 13:24:24;;;;;;;;;;;4.30;99.90;;;;;;4913588;29;19929;-74
2022/04/03 13:26:51;;;;;;;;;;;4.20;99.90;;;;;;4930334;29;19965;-74
2022/04/03 13:29:24;;;;;;;;;;;4.10;98.50;;;;;;4926828;29;19926;-74
2022/04/03 13:31:51;;;;;;;;;;;3.90;99.90;;;;;;4924869;29;19927;-74
2022/04/03 13:34:23;;;;;;;;;;;4.00;99.90;;;;;;4918310;29;20025;-74
2022/04/03 13:36:54;;;;;;;;;;;4.40;99.90;;;;;;4930944;29;19923;-74
2022/04/03 13:39:21;;;;;;;;;;;4.50;99.90;;;;;;4912433;29;19951;-74
2022/04/03 13:41:55;;;;;;;;;;;4.60;99.90;;;;;;4931236;29;20060;-74
2022/04/03 13:44:22;;;;;;;;;;;4.80;99.90;;;;;;4917267;29;19923;-75
2022/04/03 13:46:49;;;;;;;;;;;5.00;99.90;;;;;;4933555;29;20274;-74
2022/04/03 13:49:16;;;;;;;;;;;5.00;99.90;;;;;;4932433;29;19926;-74
2022/04/03 13:51:47;;;;;;;;;;;4.80;99.90;;;;;;4915232;29;20370;-74
2022/04/03 13:54:14;;;;;;;;;;;4.70;99.90;;;;;;4932350;29;20037;-74
2022/04/03 13:56:41;;;;;;;;;;;4.50;99.90;;;;;;4928328;29;19929;-74
2022/04/03 13:59:08;;;;;;;;;;;4.40;99.90;;;;;;4928664;29;19962;-74
2022/04/03 14:01:35;;;;;;;;;;;4.10;99.30;;;;;;4928849;29;20013;-74
2022/04/03 14:04:03;;;;;;;;;;;4.00;99.90;;;;;;4926864;29;19932;-73
2022/04/03 14:06:29;;;;;;;;;;;3.80;96.90;;;;;;4931247;29;19933;-73
2022/04/03 14:08:56;;;;;;;;;;;3.70;99.90;;;;;;4930192;29;19934;-74
2022/04/03 14:11:28;;;;;;;;;;;3.70;99.90;;;;;;4936580;28;20412;-74
2022/04/03 14:13:59;;;;;;;;;;;3.70;99.90;;;;;;4937286;29;20009;-73
2022/04/03 14:16:26;;;;;;;;;;;3.60;99.80;;;;;;4910954;29;19923;-74
2022/04/03 14:18:54;;;;;;;;;;;3.50;99.90;;;;;;4909698;29;19931;-73
2022/04/03 14:21:25;;;;;;;;;;;3.50;97.70;;;;;;4928467;29;19971;-73
2022/04/03 14:23:57;;;;;;;;;;;3.50;98.60;;;;;;4938250;28;19923;-73
2022/04/03 14:26:29;;;;;;;;;;;3.50;99.80;;;;;;4933149;29;19929;-73
2022/04/03 14:28:56;;;;;;;;;;;3.60;99.00;;;;;;4896298;29;19930;-73
2022/04/03 14:31:23;;;;;;;;;;;3.60;96.80;;;;;;4902088;29;20022;-73
2022/04/03 14:33:52;;;;;;;;;;;3.50;98.00;;;;;;4946175;29;20357;-73
2022/04/03 14:36:21;;;;;;;;;;;3.50;98.60;;;;;;4920110;29;19923;-73
2022/04/03 14:38:48;;;;;;;;;;;3.50;99.20;;;;;;4914358;29;19923;-73
2022/04/03 14:41:19;;;;;;;;;;;3.50;99.90;;;;;;4916310;29;19987;-73
2022/04/03 14:43:52;;;;;;;;;;;3.50;99.90;;;;;;4926993;29;19923;-73
2022/04/03 14:46:21;;;;;;;;;;;3.50;99.90;;;;;;4930049;29;19922;-73
2022/04/03 14:48:48;;;;;;;;;;;3.40;99.90;;;;;;4914378;29;19982;-73